Time;durP1;ratioP1;P1;durP2;ratioP2;P2;SDS_P1;SDS_P2;PMS_P1;PMS_P2;Temp;Humidity;BMP_temperature;BMP_pressure;BME280_temperature;BME280_humidity;BME280_pressure;Samples;Min_cycle;Max_cycle;Signal;HPM_P1;HPM_P2
2023/08/04 00:00:40;;;;;;;1.87;0.83;;;;;;;15.67;100.00;97540.63;5073415;28;20690;-75
2023/08/04 00:03:07;;;;;;;2.63;0.80;;;;;;;15.60;100.00;97537.38;5073369;28;20671;-75
2023/08/04 00:05:33;;;;;;;1.03;0.93;;;;;;;15.62;100.00;97537.09;5073695;28;20210;-75
2023/08/04 00:08:00;;;;;;;2.60;1.10;;;;;;;15.56;100.00;97541.63;5073228;28;20204;-75
2023/08/04 00:10:26;;;;;;;0.80;0.70;;;;;;;15.61;100.00;97544.34;5073652;28;20200;-75
2023/08/04 00:12:52;;;;;;;0.93;0.70;;;;;;;15.65;100.00;97544.63;5073364;28;20211;-75
2023/08/04 00:15:19;;;;;;;2.10;0.80;;;;;;;15.57;100.00;97540.59;5073286;28;20215;-75
2023/08/04 00:17:45;;;;;;;1.23;0.70;;;;;;;15.45;100.00;97537.31;5073575;28;20278;-74
2023/08/04 00:20:12;;;;;;;2.20;0.90;;;;;;;15.37;100.00;97537.81;5073425;28;20231;-75
2023/08/04 00:22:40;;;;;;;1.20;0.90;;;;;;;15.25;100.00;97539.88;5073219;28;20207;-75
2023/08/04 00:25:07;;;;;;;2.37;0.97;;;;;;;15.27;100.00;97539.59;5073476;28;20277;-75
2023/08/04 00:27:33;;;;;;;1.00;0.70;;;;;;;15.21;100.00;97546.84;5073303;28;20582;-75
2023/08/04 00:30:00;;;;;;;1.17;0.70;;;;;;;15.16;100.00;97543.31;5073345;28;20220;-75
2023/08/04 00:32:28;;;;;;;1.80;0.80;;;;;;;15.19;100.00;97546.28;5073410;28;20209;-75
2023/08/04 00:34:54;;;;;;;1.10;0.93;;;;;;;15.13;100.00;97531.25;5073112;28;20295;-74
2023/08/04 00:37:20;;;;;;;1.13;0.80;;;;;;;15.12;100.00;97542.22;5073046;28;20245;-75
2023/08/04 00:39:47;;;;;;;1.97;0.90;;;;;;;15.09;100.00;97548.91;5072933;28;20688;-75
2023/08/04 00:42:13;;;;;;;1.93;1.00;;;;;;;15.05;100.00;97536.28;5073020;28;20208;-75
2023/08/04 00:44:40;;;;;;;1.13;0.80;;;;;;;15.08;100.00;97547.28;5073344;28;20211;-74
2023/08/04 00:47:07;;;;;;;1.13;0.83;;;;;;;15.06;100.00;97540.59;5073314;28;20579;-75
2023/08/04 00:49:33;;;;;;;2.17;1.20;;;;;;;15.02;100.00;97550.19;5073202;28;20217;-75
2023/08/04 00:52:00;;;;;;;1.87;0.80;;;;;;;15.00;100.00;97544.28;5072913;28;20217;-75
2023/08/04 00:54:26;;;;;;;3.20;1.00;;;;;;;14.95;100.00;97541.56;5073204;28;20261;-75
2023/08/04 00:56:54;;;;;;;1.57;1.00;;;;;;;14.91;100.00;97552.00;5073063;28;20226;-75
2023/08/04 00:59:20;;;;;;;1.00;0.80;;;;;;;14.84;100.00;97548.72;5073046;28;20229;-75
2023/08/04 01:01:49;;;;;;;2.00;0.80;;;;;;;14.86;100.00;97557.31;5073129;28;20211;-75
2023/08/04 01:04:17;;;;;;;3.07;1.10;;;;;;;14.76;100.00;97556.44;5072798;28;20656;-75
2023/08/04 01:06:59;;;;;;;2.33;0.70;;;;;;;14.78;100.00;97556.97;5073107;28;20211;-75
2023/08/04 01:09:54;;;;;;;1.33;0.90;;;;;;;14.80;100.00;97560.22;5075379;28;20227;-75
2023/08/04 01:12:26;;;;;;;1.47;0.83;;;;;;;14.75;100.00;97555.63;5058701;28;20205;-75
2023/08/04 01:14:54;;;;;;;1.13;0.70;;;;;;;14.78;100.00;97556.97;5076750;28;20204;-75
2023/08/04 01:17:29;;;;;;;1.87;1.00;;;;;;;14.90;100.00;97560.28;5076686;28;20250;-75
2023/08/04 01:19:56;;;;;;;1.63;0.70;;;;;;;14.91;100.00;97562.72;5076189;28;20566;-75
2023/08/04 01:22:23;;;;;;;1.93;0.70;;;;;;;14.91;100.00;97552.00;5076629;28;20207;-75
2023/08/04 01:24:51;;;;;;;0.80;0.80;;;;;;;15.02;100.00;97551.00;5076585;28;20208;-75
2023/08/04 01:27:32;;;;;;;1.03;0.70;;;;;;;15.15;100.00;97555.09;5076260;28;20213;-75
2023/08/04 01:30:03;;;;;;;1.53;0.87;;;;;;;15.15;100.00;97550.53;5076134;28;20221;-75
2023/08/04 01:32:29;;;;;;;1.17;0.80;;;;;;;15.21;100.00;97548.69;5076451;28;20207;-75
2023/08/04 01:34:56;;;;;;;1.07;0.80;;;;;;;15.20;100.00;97539.06;5076390;28;20299;-75
2023/08/04 01:37:22;;;;;;;2.03;0.90;;;;;;;15.22;100.00;97543.09;5076358;28;20205;-75
2023/08/04 01:39:50;;;;;;;1.67;1.10;;;;;;;15.21;100.00;97533.44;5075857;28;20778;-75
2023/08/04 01:42:16;;;;;;;0.60;0.60;;;;;;;15.19;100.00;97540.91;5076137;28;20212;-75
2023/08/04 01:44:42;;;;;;;1.67;1.00;;;;;;;15.17;100.00;97537.69;5076230;28;20303;-74
2023/08/04 01:47:09;;;;;;;1.13;0.80;;;;;;;15.17;100.00;97536.88;5076187;28;20200;-75
2023/08/04 01:49:35;;;;;;;1.20;0.90;;;;;;;15.00;100.00;97531.72;5076073;28;20307;-75
2023/08/04 01:52:02;;;;;;;1.70;0.90;;;;;;;14.91;100.00;97530.59;5076102;28;20309;-75
2023/08/04 01:54:29;;;;;;;2.50;1.10;;;;;;;14.95;100.00;97526.34;5076054;28;20295;-75
2023/08/04 01:56:55;;;;;;;2.17;0.93;;;;;;;14.92;100.00;97529.53;5075632;28;20624;-75
2023/08/04 01:59:21;;;;;;;0.83;0.70;;;;;;;14.96;100.00;97537.81;5075530;28;20220;-75
2023/08/04 02:01:48;;;;;;;1.13;0.93;;;;;;;14.83;100.00;97528.41;5075618;28;20671;-75
2023/08/04 02:04:15;;;;;;;1.70;0.90;;;;;;;14.81;100.00;97535.06;5075538;28;20215;-75
2023/08/04 02:06:41;;;;;;;1.50;1.07;;;;;;;14.84;100.00;97530.00;5075608;28;20200;-75
2023/08/04 02:09:07;;;;;;;2.53;1.00;;;;;;;14.86;100.00;97533.25;5075514;28;20227;-75
2023/08/04 02:11:34;;;;;;;2.07;1.20;;;;;;;14.88;100.00;97528.41;5075673;28;20205;-75
2023/08/04 02:14:01;;;;;;;1.93;0.90;;;;;;;14.95;100.00;97530.88;5075680;28;20574;-75
2023/08/04 02:16:27;;;;;;;2.20;0.83;;;;;;;15.00;100.00;97528.22;5076151;28;20213;-75
2023/08/04 02:19:01;;;;;;;2.30;1.07;;;;;;;14.98;100.00;97525.84;5075420;28;20220;-75
2023/08/04 02:21:28;;;;;;;1.53;1.10;;;;;;;15.02;100.00;97526.09;5074420;28;20188;-75
2023/08/04 02:23:54;;;;;;;2.10;1.10;;;;;;;15.06;100.00;97532.56;5075181;28;20693;-75
2023/08/04 02:26:21;;;;;;;2.13;0.97;;;;;;;15.13;100.00;97525.09;5075223;28;20200;-75
2023/08/04 02:28:49;;;;;;;1.23;1.10;;;;;;;15.12;100.00;97528.84;5075357;28;20235;-74
2023/08/04 02:31:16;;;;;;;1.70;0.80;;;;;;;15.15;100.00;97525.66;5075334;28;20209;-75
2023/08/04 02:33:42;;;;;;;1.07;0.90;;;;;;;15.20;100.00;97534.50;5074860;28;20205;-75
2023/08/04 02:36:09;;;;;;;1.87;0.90;;;;;;;15.20;100.00;97539.06;5075009;28;20210;-75
2023/08/04 02:38:35;;;;;;;3.97;1.00;;;;;;;15.12;100.00;97535.00;5074594;28;20239;-75
2023/08/04 02:41:02;;;;;;;1.80;1.10;;;;;;;15.08;100.00;97547.28;5074875;28;20223;-75
2023/08/04 02:43:32;;;;;;;2.20;1.10;;;;;;;15.14;100.00;97534.72;5074910;28;20212;-75
2023/08/04 02:45:59;;;;;;;1.00;0.80;;;;;;;15.13;100.00;97536.59;5074801;28;20239;-75
2023/08/04 02:48:25;;;;;;;3.37;1.13;;;;;;;15.14;100.00;97532.03;5074748;28;20226;-75
2023/08/04 02:51:08;;;;;;;3.37;0.83;;;;;;;15.11;100.00;97538.72;5074959;28;20208;-75
2023/08/04 02:53:36;;;;;;;1.33;0.70;;;;;;;15.11;100.00;97533.38;5074400;28;20640;-75
2023/08/04 02:56:13;;;;;;;2.10;0.97;;;;;;;15.13;100.00;97533.13;5074635;28;20207;-75
2023/08/04 02:58:41;;;;;;;1.67;0.90;;;;;;;15.14;100.00;97538.22;5074067;28;20230;-75
2023/08/04 03:01:07;;;;;;;1.70;1.00;;;;;;;15.15;100.00;97534.47;5074394;28;20220;-75
2023/08/04 03:03:34;;;;;;;0.80;0.80;;;;;;;15.19;100.00;97535.56;5074405;28;20209;-75
2023/08/04 03:06:02;;;;;;;2.67;0.90;;;;;;;15.27;100.00;97529.72;5074183;28;20296;-75
2023/08/04 03:08:31;;;;;;;1.10;0.97;;;;;;;15.24;100.00;97534.78;5074373;28;20232;-75
2023/08/04 03:10:57;;;;;;;1.83;1.07;;;;;;;15.25;100.00;97541.75;5074150;28;20601;-75
2023/08/04 03:13:24;;;;;;;1.97;1.00;;;;;;;15.32;100.00;97543.13;5074452;28;20314;-75
2023/08/04 03:15:58;;;;;;;3.37;0.80;;;;;;;15.36;100.00;97543.44;5075220;28;20204;-75
2023/08/04 03:18:25;;;;;;;0.77;0.77;;;;;;;15.42;100.00;97537.06;5074299;28;20224;-75
2023/08/04 03:20:51;;;;;;;1.37;1.10;;;;;;;15.41;100.00;97540.78;5074190;28;20222;-75
2023/08/04 03:23:18;;;;;;;1.47;0.80;;;;;;;15.40;100.00;97537.31;5074152;28;20205;-75
2023/08/04 03:25:45;;;;;;;2.70;0.80;;;;;;;15.42;100.00;97542.41;5074174;28;20609;-75
2023/08/04 03:28:12;;;;;;;1.63;0.90;;;;;;;15.45;100.00;97545.34;5074281;28;20308;-75
2023/08/04 03:30:38;;;;;;;1.67;0.97;;;;;;;15.45;100.00;97541.88;5073727;28;20205;-74
2023/08/04 03:33:04;;;;;;;3.23;1.00;;;;;;;15.49;100.00;97543.78;5073465;28;20671;-75
2023/08/04 03:35:31;;;;;;;1.13;0.90;;;;;;;15.49;100.00;97548.31;5073439;28;20683;-75
2023/08/04 03:37:57;;;;;;;1.63;0.90;;;;;;;15.55;100.00;97549.94;5073726;28;20208;-75
2023/08/04 03:40:24;;;;;;;3.13;1.20;;;;;;;15.54;100.00;97543.78;5073849;28;20224;-75
2023/08/04 03:42:50;;;;;;;2.67;1.20;;;;;;;15.56;100.00;97538.16;5073866;28;20204;-75
2023/08/04 03:45:16;;;;;;;4.30;1.20;;;;;;;15.55;100.00;97542.72;5073398;28;20208;-74
2023/08/04 03:47:43;;;;;;;1.60;1.10;;;;;;;15.58;100.00;97547.56;5074312;28;20209;-75
2023/08/04 03:50:09;;;;;;;2.53;1.40;;;;;;;15.63;100.00;97544.06;5073512;28;20220;-74
2023/08/04 03:52:37;;;;;;;2.83;1.20;;;;;;;15.58;100.00;97544.88;5073816;28;20204;-75
2023/08/04 03:55:05;;;;;;;3.70;1.50;;;;;;;15.56;100.00;97538.97;5073627;28;20232;-75
2023/08/04 03:57:31;;;;;;;1.83;1.20;;;;;;;15.53;100.00;97538.69;5073733;28;20207;-75
2023/08/04 03:59:57;;;;;;;2.57;1.60;;;;;;;15.47;100.00;97551.25;5073519;28;20228;-75
2023/08/04 04:02:24;;;;;;;2.67;1.30;;;;;;;15.49;100.00;97535.75;5073618;28;20200;-75
2023/08/04 04:04:50;;;;;;;2.33;1.50;;;;;;;15.51;100.00;97538.94;5073472;28;20589;-75
2023/08/04 04:07:17;;;;;;;4.50;1.50;;;;;;;15.54;100.00;97537.59;5073248;28;20231;-75
2023/08/04 04:09:43;;;;;;;2.67;1.47;;;;;;;15.52;100.00;97543.22;5069214;28;20518;-78
2023/08/04 04:12:10;;;;;;;4.13;1.50;;;;;;;15.47;100.00;97542.44;5075417;28;20213;-79
2023/08/04 04:14:36;;;;;;;3.87;1.40;;;;;;;15.49;100.00;97540.28;5073824;28;20196;-79
2023/08/04 04:17:03;;;;;;;1.93;1.43;;;;;;;15.49;100.00;97533.06;5074520;28;20291;-79
2023/08/04 04:19:29;;;;;;;2.83;1.60;;;;;;;15.48;100.00;97538.66;5064695;28;20688;-79
2023/08/04 04:21:56;;;;;;;3.30;1.80;;;;;;;15.52;100.00;97534.41;5054949;28;20664;-79
2023/08/04 04:24:22;;;;;;;2.20;1.60;;;;;;;15.52;100.00;97543.22;5056030;28;20205;-79
2023/08/04 04:26:48;;;;;;;3.47;1.80;;;;;;;15.60;100.00;97552.66;5054870;28;20304;-78
2023/08/04 04:29:15;;;;;;;2.07;1.50;;;;;;;15.55;100.00;97552.63;5055541;28;20658;-78
2023/08/04 04:31:41;;;;;;;2.40;1.73;;;;;;;15.54;100.00;97554.50;5070241;28;20571;-79
2023/08/04 04:34:08;;;;;;;4.57;1.73;;;;;;;15.56;100.00;97555.03;5073513;28;20297;-75
2023/08/04 04:36:34;;;;;;;4.17;2.20;;;;;;;15.59;100.00;97554.53;5070901;28;20197;-79
2023/08/04 04:39:01;;;;;;;3.00;1.70;;;;;;;15.68;100.00;97555.63;5063466;28;20217;-78
2023/08/04 04:41:28;;;;;;;3.60;1.80;;;;;;;15.57;100.00;97559.34;5074183;28;20229;-78
2023/08/04 04:43:55;;;;;;;5.60;2.03;;;;;;;15.63;100.00;97565.50;5061263;28;20220;-79
2023/08/04 04:46:21;;;;;;;3.77;2.20;;;;;;;15.56;100.00;97563.06;5072626;28;20203;-79
2023/08/04 04:48:47;;;;;;;4.50;2.10;;;;;;;15.59;100.00;97565.25;5067181;28;20229;-79
2023/08/04 04:51:14;;;;;;;4.53;2.30;;;;;;;15.60;100.00;97574.09;5070947;28;20227;-79
2023/08/04 04:53:40;;;;;;;5.63;2.00;;;;;;;15.64;100.00;97572.47;5077498;28;20208;-79
2023/08/04 04:56:07;;;;;;;5.50;2.17;;;;;;;15.65;100.00;97572.22;5077657;28;20208;-78
2023/08/04 04:58:33;;;;;;;6.13;2.30;;;;;;;15.72;100.00;97572.78;5076791;28;20251;-79
2023/08/04 05:01:06;;;;;;;4.47;1.80;;;;;;;15.65;100.00;97574.13;5076848;28;20311;-79
2023/08/04 05:03:32;;;;;;;2.50;1.90;;;;;;;15.67;100.00;97574.63;5076453;28;20205;-78
2023/08/04 05:05:59;;;;;;;4.30;1.77;;;;;;;15.63;100.00;97577.03;5076792;28;20211;-78
2023/08/04 05:08:25;;;;;;;4.30;1.60;;;;;;;15.62;100.00;97571.94;5078178;28;20221;-78
2023/08/04 05:10:53;;;;;;;2.90;1.30;;;;;;;15.62;100.00;97575.44;5078005;28;20201;-78
2023/08/04 05:13:19;;;;;;;1.93;1.40;;;;;;;15.60;100.00;97582.91;5079369;28;20204;-79
2023/08/04 05:15:49;;;;;;;2.83;1.60;;;;;;;15.72;100.00;97577.34;5079061;28;20208;-79
2023/08/04 05:18:16;;;;;;;3.03;1.23;;;;;;;15.69;100.00;97584.03;5076676;28;20679;-75
2023/08/04 05:20:48;;;;;;;3.03;1.60;;;;;;;15.74;100.00;97583.25;5076211;28;20217;-75
2023/08/04 05:23:15;;;;;;;1.63;1.47;;;;;;;15.74;100.00;97589.41;5076001;28;20212;-75
2023/08/04 05:25:41;;;;;;;4.10;1.57;;;;;;;15.74;100.00;97589.41;5076196;28;20230;-75
2023/08/04 05:28:37;;;;;;;4.07;1.40;;;;;;;15.85;100.00;97590.25;5075149;28;20750;-75
2023/08/04 05:31:05;;;;;;;2.33;1.53;;;;;;;15.88;100.00;97584.38;5071109;28;20200;-75
2023/08/04 05:33:33;;;;;;;2.87;1.60;;;;;;;15.86;100.00;97590.00;5076143;28;20211;-75
2023/08/04 05:36:00;;;;;;;2.50;1.20;;;;;;;15.83;100.00;97597.75;5076006;28;20208;-75
2023/08/04 05:38:28;;;;;;;3.80;1.83;;;;;;;15.76;100.00;97592.66;5075683;28;20307;-75
2023/08/04 05:40:55;;;;;;;5.13;1.77;;;;;;;15.84;100.00;97591.31;5075657;28;20707;-75
2023/08/04 05:43:23;;;;;;;4.80;1.83;;;;;;;15.80;100.00;97593.72;5076123;28;20295;-74
2023/08/04 05:45:50;;;;;;;4.07;2.10;;;;;;;15.85;100.00;97596.44;5075630;28;20205;-75
2023/08/04 05:48:16;;;;;;;4.70;2.17;;;;;;;15.87;100.00;97599.63;5075720;28;20212;-75
2023/08/04 05:50:43;;;;;;;3.13;1.93;;;;;;;15.95;100.00;97601.00;5075902;28;20207;-75
2023/08/04 05:53:10;;;;;;;5.43;2.03;;;;;;;15.99;100.00;97600.22;5075875;28;20204;-75
2023/08/04 05:55:37;;;;;;;5.83;2.20;;;;;;;16.03;100.00;97604.00;5075494;28;20209;-75
2023/08/04 05:58:03;;;;;;;6.83;2.30;;;;;;;16.02;100.00;97597.00;5075201;28;20559;-75
2023/08/04 06:00:30;;;;;;;6.10;1.67;;;;;;;16.08;100.00;97595.97;5075042;28;20572;-75
2023/08/04 06:02:57;;;;;;;5.67;1.87;;;;;;;16.04;100.00;97600.22;5075269;28;20299;-74
2023/08/04 06:05:23;;;;;;;3.37;1.50;;;;;;;16.02;100.00;97607.72;5068706;28;20675;-74
2023/08/04 06:07:49;;;;;;;2.77;1.53;;;;;;;16.06;100.00;97603.44;5064812;28;20659;-75
2023/08/04 06:10:18;;;;;;;4.13;1.80;;;;;;;16.13;100.00;97604.00;5065209;28;20664;-75
2023/08/04 06:12:44;;;;;;;5.20;2.03;;;;;;;16.13;100.00;97598.66;5063789;28;20284;-75
2023/08/04 06:15:11;;;;;;;4.17;1.90;;;;;;;16.18;100.00;97605.88;5071553;28;20575;-75
2023/08/04 06:17:37;;;;;;;4.77;1.90;;;;;;;16.23;100.00;97598.66;5075381;28;20201;-75
2023/08/04 06:20:04;;;;;;;3.43;1.90;;;;;;;16.32;100.00;97607.78;5074924;28;20228;-75
2023/08/04 06:22:31;;;;;;;6.70;2.13;;;;;;;16.29;100.00;97597.59;5075218;28;20238;-75
2023/08/04 06:24:57;;;;;;;7.20;2.00;;;;;;;16.36;100.00;97608.88;5075141;28;20204;-75
2023/08/04 06:27:23;;;;;;;6.00;2.10;;;;;;;16.41;100.00;97603.56;5074602;28;20259;-75
2023/08/04 06:29:50;;;;;;;2.80;1.80;;;;;;;16.46;100.00;97608.13;5059628;28;20700;-74
2023/08/04 06:32:17;;;;;;;5.70;2.10;;;;;;;16.59;100.00;97621.00;5053320;28;20543;-75
2023/08/04 06:34:43;;;;;;;3.43;2.03;;;;;;;16.73;100.00;97611.38;5053076;28;20231;-75
2023/08/04 06:37:09;;;;;;;6.17;1.90;;;;;;;16.91;100.00;97619.66;5054683;28;20572;-75
2023/08/04 06:39:36;;;;;;;5.17;2.00;;;;;;;16.92;100.00;97623.19;5054666;28;20229;-74
2023/08/04 06:42:04;;;;;;;3.07;1.70;;;;;;;17.11;100.00;97619.66;5054363;28;20714;-75
2023/08/04 06:44:30;;;;;;;1.90;1.40;;;;;;;17.16;100.00;97619.66;5054767;28;20201;-75
2023/08/04 06:46:57;;;;;;;3.37;1.47;;;;;;;17.44;100.00;97631.72;5054765;28;20228;-75
2023/08/04 06:49:23;;;;;;;4.43;1.70;;;;;;;17.56;100.00;97626.84;5055074;28;20240;-75
2023/08/04 06:51:50;;;;;;;4.27;1.40;;;;;;;17.45;100.00;97618.00;5054683;28;20208;-75
2023/08/04 06:54:17;;;;;;;3.07;1.60;;;;;;;17.68;100.00;97624.66;5054257;28;20205;-75
2023/08/04 06:56:43;;;;;;;3.60;1.70;;;;;;;17.49;100.00;97623.63;5054416;28;20571;-75
2023/08/04 06:59:11;;;;;;;3.70;1.70;;;;;;;17.58;100.00;97630.88;5054190;28;20731;-75
2023/08/04 07:01:37;;;;;;;3.20;1.80;;;;;;;18.04;100.00;97628.81;5054450;28;20581;-75
2023/08/04 07:04:04;;;;;;;5.60;1.90;;;;;;;17.70;100.00;97631.38;5054123;28;20208;-74
2023/08/04 07:06:31;;;;;;;6.27;2.00;;;;;;;17.72;100.00;97639.97;5053757;28;20228;-75
2023/08/04 07:08:57;;;;;;;5.17;2.10;;;;;;;17.74;100.00;97632.41;5054344;28;20229;-75
2023/08/04 07:11:23;;;;;;;6.23;2.00;;;;;;;17.58;100.00;97627.38;5054368;28;20288;-75
2023/08/04 07:13:50;;;;;;;3.33;1.70;;;;;;;17.31;100.00;97632.25;5054296;28;20205;-75
2023/08/04 07:16:17;;;;;;;3.07;1.47;;;;;;;17.47;100.00;97625.81;5054176;28;20201;-75
2023/08/04 07:18:44;;;;;;;3.00;1.60;;;;;;;17.82;100.00;97628.38;5054147;28;20248;-75
2023/08/04 07:21:11;;;;;;;4.60;1.80;;;;;;;17.98;100.00;97638.81;5053882;28;20225;-75
2023/08/04 07:23:38;;;;;;;2.70;1.17;;;;;;;17.91;100.00;97638.28;5053643;28;20201;-75
2023/08/04 07:26:06;;;;;;;3.23;1.43;;;;;;;18.02;100.00;97636.34;5053932;28;20298;-75
2023/08/04 07:28:33;;;;;;;3.80;1.60;;;;;;;18.19;100.00;97642.19;5053743;28;20228;-75
2023/08/04 07:31:02;;;;;;;4.20;1.67;;;;;;;18.00;100.00;97642.00;5053726;28;20205;-75
2023/08/04 07:33:29;;;;;;;3.07;1.30;;;;;;;17.99;100.00;97645.78;5053845;28;20212;-75
2023/08/04 07:35:57;;;;;;;2.23;1.60;;;;;;;18.08;100.00;97649.50;5053906;28;20205;-75
2023/08/04 07:38:24;;;;;;;4.57;1.53;;;;;;;18.16;100.00;97646.25;5053588;28;20225;-75
2023/08/04 07:40:51;;;;;;;5.67;1.60;;;;;;;18.00;100.00;97647.38;5053702;28;20228;-74
2023/08/04 07:43:18;;;;;;;2.67;1.47;;;;;;;18.09;100.00;97650.31;5053703;28;20201;-75
2023/08/04 07:45:44;;;;;;;2.60;1.50;;;;;;;18.33;100.00;97652.09;5053463;28;20205;-75
2023/08/04 07:48:11;;;;;;;2.90;1.47;;;;;;;18.17;100.00;97661.31;5053554;28;20210;-75
2023/08/04 07:50:42;;;;;;;3.23;1.40;;;;;;;18.36;100.00;97656.94;5053622;28;20211;-75
2023/08/04 07:53:09;;;;;;;4.10;1.80;;;;;;;18.34;100.00;97658.28;5053333;28;20193;-75
2023/08/04 07:55:36;;;;;;;3.27;1.40;;;;;;;18.57;100.00;97661.13;5053340;28;20209;-75
2023/08/04 07:58:03;;;;;;;3.67;1.20;;;;;;;18.57;100.00;97661.13;5053446;28;20304;-75
2023/08/04 08:00:30;;;;;;;2.93;1.30;;;;;;;18.52;100.00;97655.75;5053090;28;20703;-74
2023/08/04 08:02:56;;;;;;;3.03;1.50;;;;;;;18.80;100.00;97667.69;5053245;28;20569;-75
2023/08/04 08:05:23;;;;;;;1.43;1.30;;;;;;;18.77;98.80;97671.75;5053157;28;20683;-75
2023/08/04 08:07:49;;;;;;;3.17;1.70;;;;;;;18.60;100.00;97663.22;5053034;28;20571;-75
2023/08/04 08:10:16;;;;;;;2.67;1.53;;;;;;;18.70;99.36;97668.56;5053387;28;20275;-73
2023/08/04 08:12:43;;;;;;;8.23;1.70;;;;;;;18.76;99.06;97661.25;5053425;28;20274;-75
2023/08/04 08:15:10;;;;;;;2.93;1.40;;;;;;;18.74;99.66;97663.41;5053039;28;20754;-75
2023/08/04 08:17:37;;;;;;;2.30;1.20;;;;;;;18.79;98.78;97658.00;5053305;28;20207;-75
2023/08/04 08:20:05;;;;;;;2.50;1.60;;;;;;;19.05;96.45;97654.03;5053357;28;20225;-75
2023/08/04 08:22:31;;;;;;;4.00;1.33;;;;;;;19.15;95.68;97654.75;5053085;28;20785;-75
2023/08/04 08:24:57;;;;;;;3.43;1.60;;;;;;;19.38;97.83;97642.44;5053392;28;20262;-75
2023/08/04 08:27:24;;;;;;;3.03;1.60;;;;;;;18.96;97.45;97644.94;5052894;28;20213;-75
2023/08/04 08:29:54;;;;;;;3.03;1.40;;;;;;;19.10;100.00;97640.50;5053326;28;20229;-75
2023/08/04 08:32:21;;;;;;;1.40;1.20;;;;;;;18.96;100.00;97647.63;5053184;28;20190;-75
2023/08/04 08:34:47;;;;;;;2.03;1.20;;;;;;;18.60;100.00;97643.59;5053700;28;20201;-75
2023/08/04 08:37:14;;;;;;;4.23;1.40;;;;;;;18.51;100.00;97642.56;5053112;28;20212;-75
2023/08/04 08:39:40;;;;;;;3.03;1.20;;;;;;;18.98;100.00;97643.56;5053096;28;20229;-75
2023/08/04 08:42:07;;;;;;;3.63;1.20;;;;;;;19.39;96.53;97650.22;5053635;28;20221;-75
2023/08/04 08:44:33;;;;;;;3.67;1.37;;;;;;;19.27;96.63;97647.09;5052972;28;20258;-75
2023/08/04 08:47:00;;;;;;;2.20;1.20;;;;;;;19.53;96.32;97637.69;5053009;28;20231;-74
2023/08/04 08:49:33;;;;;;;8.53;2.10;;;;;;;19.48;94.88;97647.72;5053363;28;20225;-74
2023/08/04 08:52:00;;;;;;;3.67;1.40;;;;;;;19.80;93.27;97647.91;5053534;28;20190;-74
2023/08/04 08:54:28;;;;;;;2.50;1.20;;;;;;;19.81;95.96;97657.59;5052595;28;20205;-74
2023/08/04 08:56:55;;;;;;;4.17;1.03;;;;;;;19.06;96.05;97659.13;5052520;28;20676;-74
2023/08/04 08:59:22;;;;;;;2.00;1.23;;;;;;;19.13;98.60;97669.56;5052740;28;20286;-74
2023/08/04 09:01:49;;;;;;;2.50;1.23;;;;;;;18.49;99.91;97666.25;5052611;28;20225;-74
2023/08/04 09:04:16;;;;;;;2.03;1.13;;;;;;;19.01;98.27;97675.31;5052601;28;20673;-75
2023/08/04 09:06:43;;;;;;;1.53;1.03;;;;;;;19.16;98.45;97672.53;5052372;28;20212;-75
2023/08/04 09:09:09;;;;;;;2.80;1.50;;;;;;;19.29;99.04;97658.44;5052749;28;20237;-74
2023/08/04 09:11:35;;;;;;;4.13;0.93;;;;;;;19.46;97.42;97652.59;5052960;28;20202;-74
2023/08/04 09:14:02;;;;;;;1.87;1.10;;;;;;;19.63;97.52;97657.53;5052905;28;20569;-75
2023/08/04 09:16:37;;;;;;;1.73;1.27;;;;;;;19.59;99.24;97655.41;5053021;28;20206;-74
2023/08/04 09:19:05;;;;;;;1.50;1.30;;;;;;;19.62;95.07;97650.56;5053232;28;20229;-74
2023/08/04 09:21:32;;;;;;;1.73;0.90;;;;;;;19.46;96.86;97652.59;5052339;28;20225;-74
2023/08/04 09:23:59;;;;;;;1.33;0.90;;;;;;;19.88;93.76;97646.44;5052885;28;20207;-74
2023/08/04 09:26:28;;;;;;;3.30;1.27;;;;;;;19.80;93.39;97647.91;5052178;28;20675;-75
2023/08/04 09:29:05;;;;;;;1.37;1.00;;;;;;;19.37;95.55;97649.69;5052577;28;20308;-75
2023/08/04 09:31:39;;;;;;;5.50;1.53;;;;;;;19.53;96.46;97651.16;5056203;28;20203;-75
2023/08/04 09:34:07;;;;;;;1.40;0.97;;;;;;;19.54;98.14;97654.69;5057136;28;20541;-75
2023/08/04 09:36:47;;;;;;;2.17;1.40;;;;;;;19.40;99.79;97657.22;5056095;28;20212;-74
2023/08/04 09:39:14;;;;;;;1.47;1.00;;;;;;;19.23;98.90;97651.44;5056804;28;20319;-74
2023/08/04 09:41:45;;;;;;;2.43;1.20;;;;;;;19.35;100.00;97657.28;5055539;28;20714;-74
2023/08/04 09:44:14;;;;;;;2.07;1.20;;;;;;;19.33;99.58;97651.38;5055894;28;20201;-75
2023/08/04 09:46:51;;;;;;;2.23;1.10;;;;;;;18.91;98.78;97655.75;5055859;28;20206;-74
2023/08/04 09:49:19;;;;;;;1.17;1.03;;;;;;;19.05;99.27;97643.25;5055548;28;20227;-75
2023/08/04 09:51:46;;;;;;;2.77;1.07;;;;;;;19.22;100.00;97643.63;5055693;28;20587;-75
2023/08/04 09:54:13;;;;;;;2.30;1.20;;;;;;;19.40;100.00;97638.34;5055348;28;20275;-75
2023/08/04 09:56:40;;;;;;;3.53;1.43;;;;;;;19.22;99.79;97640.91;5055358;28;20263;-75
2023/08/04 09:59:08;;;;;;;2.37;1.20;;;;;;;19.58;97.78;97648.41;5055713;28;20225;-74
2023/08/04 10:01:35;;;;;;;2.33;1.33;;;;;;;19.44;98.30;97636.69;5055262;28;20221;-74
2023/08/04 10:04:02;;;;;;;2.73;1.40;;;;;;;19.53;98.12;97635.00;5055424;28;20231;-74
2023/08/04 10:06:29;;;;;;;2.07;1.57;;;;;;;19.54;99.25;97635.81;5054937;28;20681;-75
2023/08/04 10:08:56;;;;;;;3.73;1.33;;;;;;;19.58;98.95;97639.50;5055432;28;20256;-74
2023/08/04 10:11:23;;;;;;;3.03;1.77;;;;;;;19.36;98.85;97634.63;5054358;28;20233;-75
2023/08/04 10:13:53;;;;;;;1.97;1.10;;;;;;;19.21;98.54;97637.44;5054316;28;20220;-75
2023/08/04 10:16:23;;;;;;;2.73;1.10;;;;;;;19.23;100.00;97639.88;5055238;28;20213;-75
2023/08/04 10:18:52;;;;;;;2.40;1.20;;;;;;;19.50;97.97;97645.53;5055325;28;20240;-75
2023/08/04 10:21:32;;;;;;;2.77;1.07;;;;;;;19.51;96.89;97645.25;5055167;28;20221;-75
2023/08/04 10:23:59;;;;;;;2.00;1.10;;;;;;;19.25;98.13;97656.56;5055313;28;20276;-74
2023/08/04 10:26:26;;;;;;;2.30;1.10;;;;;;;19.27;100.00;97649.81;5054901;28;20212;-74
2023/08/04 10:29:02;;;;;;;2.20;0.93;;;;;;;19.48;100.00;97649.63;5054825;28;20229;-74
2023/08/04 10:31:43;;;;;;;2.00;1.00;;;;;;;19.44;100.00;97636.69;5055069;28;20548;-74
2023/08/04 10:34:35;;;;;;;2.70;1.00;;;;;;;19.27;100.00;97641.72;5054958;28;20288;-74
2023/08/04 10:37:05;;;;;;;2.63;1.23;;;;;;;19.57;98.10;97639.81;5055004;28;20193;-74
2023/08/04 10:39:40;;;;;;;2.80;1.23;;;;;;;19.29;100.00;97644.94;5054208;28;20229;-74
2023/08/04 10:42:12;;;;;;;1.00;0.90;;;;;;;19.28;100.00;97646.00;5053236;28;20283;-74
2023/08/04 10:44:50;;;;;;;2.20;1.20;;;;;;;19.27;100.00;97644.41;5055492;28;20200;-74
2023/08/04 10:47:30;;;;;;;1.30;1.10;;;;;;;19.45;100.00;97649.09;5054346;28;20245;-74
2023/08/04 10:49:58;;;;;;;1.50;1.00;;;;;;;19.50;100.00;97657.13;5054733;28;20228;-74
2023/08/04 10:52:25;;;;;;;2.03;1.03;;;;;;;19.48;100.00;97662.00;5054856;28;20201;-74
2023/08/04 10:54:53;;;;;;;1.23;0.97;;;;;;;19.52;100.00;97665.75;5054657;28;20204;-74
2023/08/04 10:57:24;;;;;;;1.73;1.00;;;;;;;19.77;100.00;97669.25;5054544;28;20211;-74
2023/08/04 10:59:51;;;;;;;3.00;0.90;;;;;;;19.97;100.00;97667.13;5054123;28;20589;-74
2023/08/04 11:02:25;;;;;;;2.70;1.07;;;;;;;20.23;97.30;97665.75;5054145;28;20592;-74
2023/08/04 11:04:52;;;;;;;3.93;1.33;;;;;;;20.07;97.81;97666.22;5054437;28;20196;-74
2023/08/04 11:07:20;;;;;;;1.07;0.90;;;;;;;19.73;100.00;97671.72;5054264;28;20212;-74
2023/08/04 11:09:47;;;;;;;2.40;1.30;;;;;;;19.59;100.00;97684.28;5053983;28;20799;-75
2023/08/04 11:12:15;;;;;;;1.37;1.07;;;;;;;19.67;100.00;97681.75;5054371;28;20197;-75
2023/08/04 11:14:42;;;;;;;1.87;0.90;;;;;;;19.63;100.00;97682.63;5054298;28;20212;-75
2023/08/04 11:17:15;;;;;;;2.63;1.30;;;;;;;19.48;99.66;97682.75;5054492;28;20205;-74
2023/08/04 11:19:47;;;;;;;2.20;1.17;;;;;;;19.54;100.00;97678.94;5053639;28;20573;-74
2023/08/04 11:22:22;;;;;;;3.53;1.30;;;;;;;19.49;100.00;97682.47;5053958;28;20225;-74
2023/08/04 11:24:51;;;;;;;1.70;1.10;;;;;;;19.44;100.00;97685.22;5054199;28;20184;-74
2023/08/04 11:27:17;;;;;;;1.67;1.02;;;;;;;19.50;100.00;97692.16;5053008;28;20433;-75
2023/08/04 11:29:44;;;;;;;1.47;1.00;;;;;;;19.48;100.00;97690.84;5053707;28;20225;-75